Decoded Metar for UUWW (MOSCOW/VNUKOVO in RUSSIA) (IATA:VKO) | Meteo·Mobile Aviation Weather
aviador You're here:

UUWW Decoded Metar

MOSCOW/VNUKOVO in RUSSIA
Report Time2018-08-20 18:30:00
UTC Time2018-08-20 18:45:45
Flight Rules vfr VFR
Wind180° at 4 kt
W.Decomp.*RWY 19: 3.8 kt HW 1.4 kt LCW
RWY 24: 1.4 kt HW 3.8 kt LCW
W.Rank180° ranks 19
Current wind is below 180° avg. (7.3)
Visibility9999 m
Phenomena:N/A
Clouds:N/A
Expected CloudBase > 1,200 ft AGL from Temp-Dew spread
CeilingNone
Temp18°C (ISA +4)
Dew Point15°C (83% RH)
QNH1013 hPa
Density Alt1,404 ft
Elevation666 ft
Report Wrong Elevation
Raw Report
UUWW 201830Z 18002MPS CAVOK 18/15 Q1013 R24/000070 NOSIG=

Extra information for UUWW:More info

Metar Taf Metar & Taf Last 4 Metars F.Rules Stats Wind Profile Meteogram Temp Stats Airport Information Weather charts Add Link Nearby VenuesMetar ALERT Operation Metar Decoded Social comments